createdAt,value
2018-04-12T00:02:25.869Z,99.90
2018-04-12T00:04:54.153Z,99.90
2018-04-12T00:07:21.675Z,99.90
2018-04-12T00:09:49.206Z,99.90
2018-04-12T00:12:17.482Z,99.90
2018-04-12T00:14:45.773Z,99.90
2018-04-12T00:17:13.266Z,99.90
2018-04-12T00:19:40.762Z,99.90
2018-04-12T00:22:08.290Z,99.90
2018-04-12T00:24:36.565Z,99.90
2018-04-12T00:27:04.221Z,99.90
2018-04-12T00:29:31.757Z,99.90
2018-04-12T00:31:59.376Z,99.90
2018-04-12T00:34:26.881Z,99.90
2018-04-12T00:36:54.401Z,99.90
2018-04-12T00:39:21.933Z,99.90
2018-04-12T00:41:49.509Z,99.90
2018-04-12T00:44:17.038Z,99.90
2018-04-12T00:46:44.541Z,99.90
2018-04-12T00:49:12.064Z,99.90
2018-04-12T00:51:39.575Z,99.90
2018-04-12T00:54:07.894Z,99.90
2018-04-12T00:56:35.431Z,99.90
2018-04-12T00:59:03.106Z,99.90
2018-04-12T01:01:30.681Z,99.90
2018-04-12T01:03:58.231Z,99.90
2018-04-12T01:06:26.525Z,99.90
2018-04-12T01:08:54.793Z,99.90
2018-04-12T01:11:23.106Z,99.90
2018-04-12T01:13:51.699Z,99.90
2018-04-12T01:16:20.009Z,99.90
2018-04-12T01:18:47.522Z,99.90
2018-04-12T01:21:15.058Z,99.90
2018-04-12T01:23:42.566Z,99.90
2018-04-12T01:26:10.090Z,99.90
2018-04-12T01:28:37.610Z,99.90
2018-04-12T01:31:05.185Z,99.90
2018-04-12T01:33:32.774Z,99.90
2018-04-12T01:36:01.100Z,99.90
2018-04-12T01:38:28.678Z,99.90
2018-04-12T01:40:56.232Z,99.90
2018-04-12T01:43:23.754Z,99.90
2018-04-12T01:45:51.348Z,99.90
2018-04-12T01:48:19.665Z,99.90
2018-04-12T01:50:47.160Z,99.90
2018-04-12T01:53:14.690Z,99.90
2018-04-12T01:55:42.962Z,99.90
2018-04-12T01:58:10.457Z,99.90
2018-04-12T02:00:38.019Z,99.90
2018-04-12T02:03:06.297Z,99.90
2018-04-12T02:05:33.841Z,99.90
2018-04-12T02:08:01.502Z,99.90
2018-04-12T02:10:29.093Z,99.90
2018-04-12T02:12:56.593Z,99.90
2018-04-12T02:15:24.873Z,99.90
2018-04-12T02:17:53.243Z,99.90
2018-04-12T02:20:20.759Z,99.90
2018-04-12T02:22:48.319Z,99.90
2018-04-12T02:25:16.577Z,99.90
2018-04-12T02:27:44.140Z,99.90
2018-04-12T02:30:11.666Z,99.90
2018-04-12T02:32:39.174Z,99.90
2018-04-12T02:35:06.791Z,99.90
2018-04-12T02:37:35.158Z,99.90
2018-04-12T02:40:03.010Z,99.90
2018-04-12T02:42:30.638Z,99.90
2018-04-12T02:44:58.268Z,99.90
2018-04-12T02:47:25.775Z,99.90
2018-04-12T02:49:53.330Z,99.90
2018-04-12T02:52:22.017Z,99.90
2018-04-12T02:54:50.331Z,99.90
2018-04-12T02:57:17.877Z,99.90
2018-04-12T02:59:45.378Z,99.90
2018-04-12T03:02:13.234Z,99.90
2018-04-12T03:04:41.511Z,99.90
2018-04-12T03:07:09.793Z,99.90
2018-04-12T03:09:37.321Z,99.90
2018-04-12T03:12:04.900Z,99.90
2018-04-12T03:14:32.553Z,99.90
2018-04-12T03:17:00.131Z,99.90
2018-04-12T03:19:27.666Z,99.90
2018-04-12T03:21:55.205Z,99.90
2018-04-12T03:24:22.765Z,99.90
2018-04-12T03:26:50.314Z,99.90
2018-04-12T03:29:17.857Z,99.90
2018-04-12T03:31:46.143Z,99.90
2018-04-12T03:34:14.405Z,99.90
2018-04-12T03:36:41.911Z,99.90
2018-04-12T03:39:10.193Z,99.90
2018-04-12T03:41:38.461Z,99.90
2018-04-12T03:44:06.581Z,99.90
2018-04-12T03:46:34.145Z,99.90
2018-04-12T03:49:02.869Z,99.90
2018-04-12T03:51:31.166Z,99.90
2018-04-12T03:53:58.722Z,99.90
2018-04-12T03:56:26.262Z,99.90
2018-04-12T03:58:54.553Z,99.90
2018-04-12T04:01:22.898Z,99.90
2018-04-12T04:03:50.441Z,99.90
2018-04-12T04:06:18.258Z,99.90
2018-04-12T04:08:45.769Z,99.90
2018-04-12T04:11:14.049Z,99.90
2018-04-12T04:13:42.333Z,99.90
2018-04-12T04:19:21.409Z,99.90
2018-04-12T04:21:49.748Z,99.90
2018-04-12T04:24:17.281Z,99.90
2018-04-12T04:26:45.586Z,99.90
2018-04-12T04:29:13.121Z,99.90
2018-04-12T04:31:40.630Z,99.90
2018-04-12T04:34:08.191Z,99.90
2018-04-12T04:36:35.715Z,99.90
2018-04-12T04:39:04.052Z,99.90
2018-04-12T04:41:31.690Z,99.90
2018-04-12T04:43:59.479Z,99.90
2018-04-12T04:46:27.793Z,99.90
2018-04-12T04:48:55.342Z,99.90
2018-04-12T04:51:23.679Z,99.90
2018-04-12T04:53:52.015Z,99.90
2018-04-12T04:56:20.322Z,99.90
2018-04-12T04:58:47.854Z,99.90
2018-04-12T05:01:15.382Z,99.90
2018-04-12T05:03:42.897Z,99.90
2018-04-12T05:06:10.425Z,99.90
2018-04-12T05:08:37.957Z,99.90
2018-04-12T05:11:06.313Z,99.90
2018-04-12T05:13:33.847Z,99.90
2018-04-12T05:16:02.009Z,99.90
2018-04-12T05:18:30.318Z,99.90
2018-04-12T05:20:58.569Z,99.90
2018-04-12T05:23:26.077Z,99.90
2018-04-12T05:25:53.594Z,99.90
2018-04-12T05:28:21.218Z,99.90
2018-04-12T05:30:48.729Z,99.90
2018-04-12T05:33:16.246Z,99.90
2018-04-12T05:35:44.548Z,99.90
2018-04-12T05:38:12.053Z,99.90
2018-04-12T05:40:39.579Z,99.90
2018-04-12T05:43:07.108Z,99.90
2018-04-12T05:45:34.706Z,99.90
2018-04-12T05:48:03.041Z,99.90
2018-04-12T05:50:30.616Z,99.90
2018-04-12T05:52:58.161Z,99.90
2018-04-12T05:55:25.678Z,99.90
2018-04-12T05:57:53.202Z,99.90
2018-04-12T06:00:20.760Z,99.90
2018-04-12T06:02:48.291Z,99.90
2018-04-12T06:05:15.816Z,99.90
2018-04-12T06:07:43.383Z,99.90
2018-04-12T06:10:10.890Z,99.90
2018-04-12T06:12:38.421Z,99.90
2018-04-12T06:15:06.770Z,99.90
2018-04-12T06:17:34.300Z,99.90
2018-04-12T06:20:02.800Z,99.90
2018-04-12T06:22:30.405Z,99.90
2018-04-12T06:24:58.753Z,99.90
2018-04-12T06:27:26.305Z,99.90
2018-04-12T06:29:54.596Z,99.90
2018-04-12T06:32:22.161Z,99.90
2018-04-12T06:34:50.462Z,99.90
2018-04-12T06:37:17.985Z,99.90
2018-04-12T06:39:45.521Z,99.90
2018-04-12T06:42:13.030Z,99.90
2018-04-12T06:44:40.851Z,99.90
2018-04-12T06:47:08.372Z,99.90
2018-04-12T06:49:35.917Z,99.90
2018-04-12T06:52:03.481Z,99.90
2018-04-12T06:54:31.087Z,99.90
2018-04-12T06:56:59.519Z,99.90
2018-04-12T06:59:27.076Z,99.90
2018-04-12T07:01:55.365Z,99.90
2018-04-12T07:04:23.663Z,99.90
2018-04-12T07:06:51.956Z,99.90
2018-04-12T07:09:19.535Z,99.90
2018-04-12T07:11:47.054Z,99.90
2018-04-12T07:14:14.576Z,99.90
2018-04-12T07:16:42.131Z,99.90
2018-04-12T07:19:10.464Z,99.90
2018-04-12T07:21:38.306Z,99.90
2018-04-12T07:24:05.863Z,99.90
2018-04-12T07:26:33.465Z,99.90
2018-04-12T07:29:01.187Z,99.90
2018-04-12T07:31:29.522Z,99.90
2018-04-12T07:33:57.066Z,99.90
2018-04-12T07:36:25.554Z,99.90
2018-04-12T07:38:53.075Z,99.90
2018-04-12T07:41:20.655Z,99.90
2018-04-12T07:43:48.199Z,99.90
2018-04-12T07:46:15.738Z,99.90
2018-04-12T07:48:43.280Z,99.90
2018-04-12T07:51:10.846Z,99.90
2018-04-12T07:53:38.384Z,99.90
2018-04-12T07:56:06.029Z,99.90
2018-04-12T07:58:34.739Z,99.90
2018-04-12T08:01:03.241Z,99.90
2018-04-12T08:03:30.983Z,99.90
2018-04-12T08:05:58.650Z,99.90
2018-04-12T08:08:26.950Z,99.90
2018-04-12T08:10:54.507Z,99.90
2018-04-12T08:13:22.053Z,99.90
2018-04-12T08:15:49.661Z,99.90
2018-04-12T08:18:17.235Z,99.90
2018-04-12T08:20:44.751Z,99.90
2018-04-12T08:23:12.304Z,99.90
2018-04-12T08:25:40.593Z,99.90
2018-04-12T08:28:08.872Z,99.90
2018-04-12T08:30:37.218Z,99.90
2018-04-12T08:33:04.792Z,99.90
2018-04-12T08:35:32.443Z,99.90
2018-04-12T08:38:00.921Z,99.90
2018-04-12T08:40:29.364Z,99.90
2018-04-12T08:42:56.898Z,99.90
2018-04-12T08:45:24.422Z,99.90
2018-04-12T08:47:52.012Z,99.90
2018-04-12T08:50:19.593Z,99.90
2018-04-12T08:52:47.112Z,99.90
2018-04-12T08:55:14.641Z,99.90
2018-04-12T08:57:42.159Z,99.90
2018-04-12T09:00:09.705Z,99.90
2018-04-12T09:02:37.233Z,99.90
2018-04-12T09:05:05.598Z,99.90
2018-04-12T09:07:33.254Z,99.90
2018-04-12T09:10:01.812Z,99.90
2018-04-12T09:12:29.788Z,99.90
2018-04-12T09:14:57.317Z,99.90
2018-04-12T09:17:24.835Z,99.90
2018-04-12T09:19:52.452Z,99.90
2018-04-12T09:22:20.007Z,99.90
2018-04-12T09:24:47.550Z,99.90
2018-04-12T09:27:15.076Z,99.90
2018-04-12T09:29:42.598Z,99.90
2018-04-12T09:32:10.130Z,99.90
2018-04-12T09:34:38.414Z,99.90
2018-04-12T09:37:05.998Z,99.90
2018-04-12T09:39:34.482Z,99.90
2018-04-12T09:42:02.050Z,99.90
2018-04-12T09:44:29.709Z,99.90
2018-04-12T09:46:57.287Z,99.90
2018-04-12T09:49:24.853Z,99.90
2018-04-12T09:51:52.403Z,99.90
2018-04-12T09:54:19.930Z,99.90
2018-04-12T09:56:47.477Z,99.90
2018-04-12T09:59:15.774Z,99.90
2018-04-12T10:01:49.737Z,99.90
2018-04-12T10:04:17.269Z,99.90
2018-04-12T10:06:51.555Z,99.90
2018-04-12T10:09:19.114Z,99.90
2018-04-12T10:11:46.644Z,99.90
2018-04-12T10:14:14.970Z,99.90
2018-04-12T10:16:42.483Z,99.90
2018-04-12T10:19:10.809Z,99.90
2018-04-12T10:21:38.344Z,99.90
2018-04-12T10:24:06.705Z,99.90
2018-04-12T10:26:35.081Z,99.90
2018-04-12T10:29:02.677Z,99.90
2018-04-12T10:31:30.301Z,99.90
2018-04-12T10:33:57.840Z,99.90
2018-04-12T10:36:25.357Z,99.90
2018-04-12T10:38:52.949Z,99.90
2018-04-12T10:41:20.536Z,99.90
2018-04-12T10:43:48.113Z,99.90
2018-04-12T10:46:15.634Z,99.90
2018-04-12T10:48:45.978Z,99.90
2018-04-12T10:51:13.627Z,99.90
2018-04-12T10:53:41.962Z,99.90
2018-04-12T10:56:09.506Z,99.90
2018-04-12T10:58:37.025Z,99.90
2018-04-12T11:01:04.590Z,99.90
2018-04-12T11:03:32.187Z,99.90
2018-04-12T11:05:59.836Z,99.90
2018-04-12T11:08:27.414Z,99.90
2018-04-12T11:10:54.922Z,99.90
2018-04-12T11:13:22.517Z,99.90
2018-04-12T11:15:50.910Z,99.90
2018-04-12T11:18:18.502Z,99.90
2018-04-12T11:20:45.985Z,99.90
2018-04-12T11:23:15.020Z,99.90
2018-04-12T11:25:43.313Z,99.90
2018-04-12T11:28:11.616Z,99.90
2018-04-12T11:30:39.142Z,99.90
2018-04-12T11:33:07.002Z,99.90
2018-04-12T11:35:34.749Z,99.90
2018-04-12T11:38:02.407Z,99.90
2018-04-12T11:40:30.143Z,99.90
2018-04-12T11:42:58.528Z,99.90
2018-04-12T11:45:26.086Z,99.90
2018-04-12T11:47:53.605Z,99.90
2018-04-12T11:50:21.901Z,99.90
2018-04-12T11:52:49.458Z,99.90
2018-04-12T11:55:17.741Z,99.90
2018-04-12T11:57:45.654Z,99.90
2018-04-12T12:00:13.170Z,99.90
2018-04-12T12:02:40.686Z,99.90
2018-04-12T12:05:08.229Z,99.90
2018-04-12T12:07:35.806Z,99.50
2018-04-12T12:10:04.191Z,99.90
2018-04-12T12:12:32.410Z,99.90
2018-04-12T12:14:59.978Z,99.90
2018-04-12T12:17:27.513Z,99.90
2018-04-12T12:19:55.801Z,99.90
2018-04-12T12:22:23.353Z,99.90
2018-04-12T12:24:50.918Z,99.90
2018-04-12T12:27:18.441Z,99.90
2018-04-12T12:29:45.983Z,99.90
2018-04-12T12:32:13.498Z,99.90
2018-04-12T12:34:41.067Z,99.60
2018-04-12T12:37:08.614Z,99.80
2018-04-12T12:39:36.162Z,99.40
2018-04-12T12:42:03.736Z,99.30
2018-04-12T12:44:31.287Z,99.90
2018-04-12T12:46:58.943Z,99.80
2018-04-12T12:49:26.477Z,97.50
2018-04-12T12:51:55.086Z,98.60
2018-04-12T12:54:22.594Z,98.50
2018-04-12T12:56:50.132Z,97.80
2018-04-12T12:59:18.429Z,94.80
2018-04-12T13:01:45.961Z,94.80
2018-04-12T13:04:13.498Z,96.50
2018-04-12T13:06:41.064Z,97.60
2018-04-12T13:09:08.693Z,98.10
2018-04-12T13:11:37.029Z,95.90
2018-04-12T13:14:04.680Z,95.90
2018-04-12T13:16:32.425Z,95.60
2018-04-12T13:19:00.110Z,93.90
2018-04-12T13:21:27.643Z,93.40
2018-04-12T13:23:55.239Z,94.40
2018-04-12T13:26:23.745Z,92.70
2018-04-12T13:28:51.309Z,92.40
2018-04-12T13:31:19.671Z,93.00
2018-04-12T13:33:47.977Z,93.70
2018-04-12T13:36:16.273Z,92.90
2018-04-12T13:38:44.554Z,93.20
2018-04-12T13:41:12.121Z,93.10
2018-04-12T13:43:39.650Z,95.30
2018-04-12T13:46:07.200Z,95.60
2018-04-12T13:48:34.914Z,97.20
2018-04-12T13:51:02.564Z,98.10
2018-04-12T13:53:30.293Z,99.90
2018-04-12T13:56:00.524Z,96.90
2018-04-12T13:58:28.100Z,96.90
2018-04-12T14:00:55.696Z,99.90
2018-04-12T14:03:23.246Z,99.90
2018-04-12T14:05:51.673Z,99.90
2018-04-12T14:08:19.202Z,99.90
2018-04-12T14:10:47.513Z,98.80
2018-04-12T14:13:15.038Z,98.80
2018-04-12T14:15:42.575Z,98.60
2018-04-12T14:18:10.082Z,99.10
2018-04-12T14:20:37.586Z,99.10
2018-04-12T14:23:05.913Z,98.30
2018-04-12T14:25:33.467Z,98.30
2018-04-12T14:28:01.103Z,98.70
2018-04-12T14:30:28.771Z,99.90
2018-04-12T14:32:56.378Z,99.90
2018-04-12T14:35:23.905Z,99.10
2018-04-12T14:37:51.465Z,99.90
2018-04-12T14:40:19.015Z,99.90
2018-04-12T14:42:47.309Z,99.90
2018-04-12T14:45:14.847Z,99.90
2018-04-12T14:47:42.362Z,99.90
2018-04-12T14:50:09.926Z,99.90
2018-04-12T14:52:37.446Z,99.90
2018-04-12T14:55:05.726Z,98.20
2018-04-12T14:57:34.102Z,97.60
2018-04-12T15:00:01.786Z,97.60
2018-04-12T15:02:29.331Z,97.50
2018-04-12T15:04:56.882Z,97.90
2018-04-12T15:07:24.433Z,97.40
2018-04-12T15:09:51.989Z,97.50
2018-04-12T15:12:19.550Z,96.20
2018-04-12T15:14:47.875Z,96.60
2018-04-12T15:17:15.434Z,96.50
2018-04-12T15:19:42.978Z,96.50
2018-04-12T15:22:11.257Z,98.20
2018-04-12T15:24:38.758Z,98.30
2018-04-12T15:27:06.298Z,97.50
2018-04-12T15:29:33.816Z,97.90
2018-04-12T15:32:01.447Z,98.70
2018-04-12T15:34:29.019Z,98.30
2018-04-12T15:36:57.343Z,99.90
2018-04-12T15:39:24.858Z,99.90
2018-04-12T15:41:52.403Z,96.90
2018-04-12T15:44:20.085Z,97.20
2018-04-12T15:46:47.609Z,99.80
2018-04-12T15:49:15.897Z,96.00
2018-04-12T15:51:44.166Z,96.90
2018-04-12T15:54:12.282Z,96.90
2018-04-12T15:56:39.796Z,97.50
2018-04-12T15:59:07.375Z,98.10
2018-04-12T16:01:34.957Z,97.80
2018-04-12T16:04:02.532Z,97.10
2018-04-12T16:06:30.942Z,99.90
2018-04-12T16:08:58.587Z,99.90
2018-04-12T16:11:27.782Z,98.50
2018-04-12T16:13:55.297Z,98.60
2018-04-12T16:16:23.581Z,99.20
2018-04-12T16:18:51.898Z,99.90
2018-04-12T16:21:19.416Z,99.90
2018-04-12T16:23:47.754Z,99.90
2018-04-12T16:26:15.253Z,99.90
2018-04-12T16:28:42.769Z,99.90
2018-04-12T16:31:11.057Z,99.90
2018-04-12T16:33:39.329Z,99.90
2018-04-12T16:36:06.890Z,99.90
2018-04-12T16:38:35.213Z,99.60
2018-04-12T16:41:02.886Z,99.60
2018-04-12T16:43:30.476Z,99.90
2018-04-12T16:45:58.001Z,99.70
2018-04-12T16:48:25.533Z,99.90
2018-04-12T16:50:53.038Z,99.90
2018-04-12T16:53:20.625Z,99.90
2018-04-12T16:55:48.937Z,99.90
2018-04-12T16:58:16.462Z,99.90
2018-04-12T17:00:43.969Z,99.90
2018-04-12T17:03:11.479Z,99.90
2018-04-12T17:05:39.001Z,99.90
2018-04-12T17:08:07.382Z,99.90
2018-04-12T17:10:34.954Z,99.90
2018-04-12T17:13:03.337Z,99.90
2018-04-12T17:15:30.938Z,99.90
2018-04-12T17:17:58.734Z,99.90
2018-04-12T17:20:26.241Z,99.90
2018-04-12T17:22:53.769Z,99.90
2018-04-12T17:25:21.279Z,99.90
2018-04-12T17:27:48.853Z,99.90
2018-04-12T17:30:16.361Z,99.90
2018-04-12T17:32:44.649Z,99.90
2018-04-12T17:35:12.981Z,99.90
2018-04-12T17:37:40.518Z,99.90
2018-04-12T17:40:08.070Z,99.90
2018-04-12T17:42:36.345Z,99.90
2018-04-12T17:45:03.961Z,99.90
2018-04-12T17:47:31.519Z,99.90
2018-04-12T17:49:59.105Z,99.90
2018-04-12T17:52:26.614Z,99.90
2018-04-12T17:54:54.118Z,99.90
2018-04-12T17:57:22.437Z,99.90
2018-04-12T17:59:50.011Z,99.90
2018-04-12T18:02:17.553Z,99.90
2018-04-12T18:04:45.073Z,99.90
2018-04-12T18:07:12.602Z,99.90
2018-04-12T18:09:40.676Z,99.90
2018-04-12T18:12:08.954Z,99.90
2018-04-12T18:14:36.490Z,99.90
2018-04-12T18:17:04.105Z,99.90
2018-04-12T18:19:32.446Z,99.90
2018-04-12T18:22:00.030Z,99.90
2018-04-12T18:24:27.604Z,99.90
2018-04-12T18:26:55.916Z,99.90
2018-04-12T18:29:23.456Z,99.90
2018-04-12T18:31:50.999Z,99.90
2018-04-12T18:34:18.507Z,99.90
2018-04-12T18:36:46.030Z,99.90
2018-04-12T18:39:13.537Z,99.90
2018-04-12T18:41:41.081Z,99.90
2018-04-12T18:44:08.597Z,99.90
2018-04-12T18:46:36.172Z,99.90
2018-04-12T18:49:03.784Z,99.90
2018-04-12T18:51:31.370Z,99.90
2018-04-12T18:53:59.222Z,99.90
2018-04-12T18:56:27.507Z,99.90
2018-04-12T18:58:55.398Z,99.90
2018-04-12T19:01:23.037Z,99.90
2018-04-12T19:03:50.546Z,99.90
2018-04-12T19:06:18.111Z,99.90
2018-04-12T19:08:46.380Z,99.90
2018-04-12T19:11:14.687Z,99.90
2018-04-12T19:13:42.198Z,99.90
2018-04-12T19:16:09.721Z,99.90
2018-04-12T19:18:38.027Z,99.90
2018-04-12T19:21:05.657Z,99.90
2018-04-12T19:23:34.025Z,99.90
2018-04-12T19:26:01.667Z,99.90
2018-04-12T19:28:29.233Z,99.90
2018-04-12T19:30:56.771Z,99.90
2018-04-12T19:33:24.478Z,99.90
2018-04-12T19:35:51.998Z,99.90
2018-04-12T19:38:19.565Z,99.90
2018-04-12T19:40:47.116Z,99.90
2018-04-12T19:43:14.648Z,99.90
2018-04-12T19:45:44.149Z,99.90
2018-04-12T19:48:12.417Z,99.90
2018-04-12T19:50:39.946Z,99.90
2018-04-12T19:53:07.462Z,99.90
2018-04-12T19:55:35.038Z,99.90
2018-04-12T19:58:03.012Z,99.90
2018-04-12T20:00:30.560Z,99.90
2018-04-12T20:02:58.122Z,99.90
2018-04-12T20:05:25.646Z,99.90
2018-04-12T20:07:53.960Z,99.90
2018-04-12T20:10:22.250Z,99.90
2018-04-12T20:12:49.786Z,99.90
2018-04-12T20:15:18.107Z,99.90
2018-04-12T20:17:45.634Z,99.90
2018-04-12T20:20:13.159Z,99.90
2018-04-12T20:22:40.737Z,99.90
2018-04-12T20:25:09.017Z,99.90
2018-04-12T20:27:36.528Z,99.90
2018-04-12T20:30:04.081Z,99.90
2018-04-12T20:32:31.760Z,99.90
2018-04-12T20:34:59.339Z,99.90
2018-04-12T20:37:27.693Z,99.90
2018-04-12T20:39:55.203Z,99.90
2018-04-12T20:42:22.832Z,99.90
2018-04-12T20:44:50.362Z,99.90
2018-04-12T20:47:18.297Z,99.90
2018-04-12T20:49:45.811Z,99.90
2018-04-12T20:52:13.314Z,99.90
2018-04-12T20:54:40.852Z,99.90
2018-04-12T20:57:08.373Z,99.90
2018-04-12T20:59:35.918Z,99.90
2018-04-12T21:02:04.246Z,99.90
2018-04-12T21:04:31.784Z,99.90
2018-04-12T21:06:59.382Z,99.90
2018-04-12T21:09:26.931Z,99.90
2018-04-12T21:11:54.429Z,99.90
2018-04-12T21:14:22.565Z,99.90
2018-04-12T21:16:50.161Z,99.90
2018-04-12T21:19:17.678Z,99.90
2018-04-12T21:21:45.210Z,99.90
2018-04-12T21:24:12.709Z,99.90
2018-04-12T21:26:40.234Z,99.90
2018-04-12T21:29:07.749Z,99.90
2018-04-12T21:31:35.310Z,99.90
2018-04-12T21:34:02.926Z,99.90
2018-04-12T21:36:30.487Z,99.90
2018-04-12T21:38:58.028Z,99.90
2018-04-12T21:41:26.310Z,99.90
2018-04-12T21:43:53.857Z,99.90
2018-04-12T21:46:21.389Z,99.90
2018-04-12T21:48:48.917Z,99.90
2018-04-12T21:51:16.430Z,99.90
2018-04-12T21:53:43.965Z,99.90
2018-04-12T21:56:11.474Z,99.90
2018-04-12T21:58:38.982Z,99.90
2018-04-12T22:01:06.517Z,99.90
2018-04-12T22:03:34.083Z,99.90
2018-04-12T22:06:01.688Z,99.90
2018-04-12T22:08:29.389Z,99.90
2018-04-12T22:10:56.965Z,99.90
2018-04-12T22:13:24.473Z,99.90
2018-04-12T22:15:52.769Z,99.90
2018-04-12T22:18:21.113Z,99.90
2018-04-12T22:20:48.642Z,99.90
2018-04-12T22:23:16.182Z,99.90
2018-04-12T22:25:44.550Z,99.90
2018-04-12T22:28:12.759Z,99.90
2018-04-12T22:30:40.277Z,99.90
2018-04-12T22:33:07.805Z,99.90
2018-04-12T22:35:35.373Z,99.90
2018-04-12T22:38:02.988Z,99.90
2018-04-12T22:40:30.550Z,99.90
2018-04-12T22:42:58.105Z,99.90
2018-04-12T22:45:26.415Z,99.90
2018-04-12T22:47:53.921Z,99.90
2018-04-12T22:50:21.541Z,99.90
2018-04-12T22:52:49.093Z,99.90
2018-04-12T22:55:17.418Z,99.90
2018-04-12T22:57:44.926Z,99.90
2018-04-12T23:00:13.265Z,99.90
2018-04-12T23:02:41.533Z,99.90
2018-04-12T23:05:09.050Z,99.90
2018-04-12T23:07:36.585Z,99.90
2018-04-12T23:10:04.909Z,99.90
2018-04-12T23:12:32.498Z,99.90
2018-04-12T23:15:00.059Z,99.90
2018-04-12T23:17:27.602Z,99.90
2018-04-12T23:19:55.122Z,99.90
2018-04-12T23:22:22.737Z,99.90
2018-04-12T23:24:51.094Z,99.90
2018-04-12T23:27:18.597Z,99.90
2018-04-12T23:29:46.893Z,99.90
2018-04-12T23:32:15.899Z,99.90
2018-04-12T23:34:43.426Z,99.90
2018-04-12T23:37:10.938Z,99.90
2018-04-12T23:39:38.493Z,99.90
2018-04-12T23:42:06.826Z,99.90
2018-04-12T23:44:34.460Z,99.90
2018-04-12T23:47:02.762Z,99.90
2018-04-12T23:49:30.478Z,99.90
2018-04-12T23:51:58.028Z,99.90
2018-04-12T23:54:26.593Z,99.90
2018-04-12T23:56:54.944Z,99.90
2018-04-12T23:59:22.530Z,99.90
